HomeShort term forecast

Short term forecast

Graphical weather forecast for the next 48 hours for Montreal:

Short term forecast

This weather forecast is automatically refreshed every 3 hours.

Hourly Experimental Forecast for the next 48 hours ®

Overall summary: Mostly cloudy throughout the day.

 Date & Hour   Temp   Feel   Baro   Hum   Speed & Bearing   Wind Gust   Precip.%   Precip.   Visibility   Cloud cover   Conditions 
 06/03/2021 - 10:00  -8.4°C  -15.9°C  1016.4 hPa  65%  20.4 km/h   31.3 km/h  0%  --  16.1km  63%  Mostly Cloudy 
 06/03/2021 - 11:00  -7.9°C  -15.4°C  1016.9 hPa  65%  21.5 km/h   32.3 km/h  0%  --  16.1km  72%  Mostly Cloudy 
 06/03/2021 - 12:00  -7.6°C  -15.1°C  1017.0 hPa  68%  21.8 km/h   32.5 km/h  0%  --  16.1km  81%  Mostly Cloudy 
 06/03/2021 - 13:00  -7.5°C  -15.0°C  1016.8 hPa  70%  21.9 km/h   32.1 km/h  0%  --  16.1km  88%  Overcast 
 06/03/2021 - 14:00  -6.8°C  -14.1°C  1016.9 hPa  69%  21.7 km/h   31.8 km/h  7%  0.03 mm/h  12.4km  96%  Overcast 
 06/03/2021 - 15:00  -6.2°C  -13.3°C  1017.3 hPa  68%  21.3 km/h   32.0 km/h  6%  0.01 mm/h  13.2km  98%  Overcast 
 06/03/2021 - 16:00  -5.9°C  -12.7°C  1017.6 hPa  68%  20.2 km/h   32.0 km/h  6%  0.01 mm/h  15.1km  100%  Overcast 
 06/03/2021 - 17:00  -6.2°C  -12.6°C  1018.3 hPa  73%  17.8 km/h   32.5 km/h  5%  0.04 mm/h  12.4km  96%  Overcast 
 06/03/2021 - 18:00  -6.8°C  -12.7°C  1019.0 hPa  76%  14.8 km/h   32.0 km/h  3%  0.01 mm/h  15.7km  79%  Mostly Cloudy 
 06/03/2021 - 19:00  -7.7°C  -13.4°C  1020.0 hPa  75%  12.9 km/h   28.4 km/h  2%  0.05 mm/h  16.1km  60%  Mostly Cloudy 
 06/03/2021 - 20:00  -8.5°C  -14.1°C  1020.6 hPa  75%  12.1 km/h   27.1 km/h  1%  0.04 mm/h  16.1km  57%  Partly Cloudy 
 06/03/2021 - 21:00  -9.2°C  -14.9°C  1021.3 hPa  75%  11.7 km/h   23.8 km/h  0%  --  16.1km  55%  Partly Cloudy 
 06/03/2021 - 22:00  -9.8°C  -15.6°C  1022.0 hPa  75%  11.6 km/h   21.2 km/h  0%  --  16.1km  56%  Partly Cloudy 
 06/03/2021 - 23:00  -11.1°C  -16.8°C  1022.3 hPa  77%  10.9 km/h   17.3 km/h  0%  --  16.1km  38%  Partly Cloudy 
 07/03/2021 - 00:00  -11.6°C  -17.4°C  1022.8 hPa  78%  10.7 km/h   17.9 km/h  0%  --  16.1km  34%  Partly Cloudy 
 07/03/2021 - 01:00  -11.7°C  -17.2°C  1022.9 hPa  80%  9.8 km/h   15.5 km/h  0%  --  16.1km  26%  Clear 
 07/03/2021 - 02:00  -12.3°C  -17.7°C  1023.4 hPa  82%  9.3 km/h   12.4 km/h  0%  --  16.1km  17%  Clear 
 07/03/2021 - 03:00  -12.9°C  -18.2°C  1023.8 hPa  82%  8.9 km/h   11.6 km/h  0%  --  16.1km  14%  Clear 
 07/03/2021 - 04:00  -13.4°C  -18.7°C  1024.7 hPa  81%  8.6 km/h   10.9 km/h  0%  --  16.1km  5%  Clear 
 07/03/2021 - 05:00  -13.9°C  -19.2°C  1025.3 hPa  80%  8.2 km/h   10.1 km/h  0%  --  16.1km  3%  Clear 
 07/03/2021 - 06:00  -14.5°C  -19.6°C  1026.0 hPa  79%  7.7 km/h   9.3 km/h  0%  --  16.1km  3%  Clear 
 07/03/2021 - 07:00  -14.9°C  -20.2°C  1026.9 hPa  78%  7.9 km/h   10.1 km/h  0%  --  16.1km  6%  Clear 
 07/03/2021 - 08:00  -14.0°C  -19.1°C  1027.8 hPa  78%  7.8 km/h   10.6 km/h  0%  --  16.1km  34%  Partly Cloudy 
 07/03/2021 - 09:00  -12.6°C  -17.2°C  1028.3 hPa  77%  7.4 km/h   9.1 km/h  0%  --  16.1km  25%  Clear 
 07/03/2021 - 10:00  -11.4°C  -15.9°C  1028.7 hPa  74%  7.5 km/h   8.6 km/h  0%  --  16.1km  9%  Clear 
 07/03/2021 - 11:00  -10.5°C  -15.4°C  1028.9 hPa  72%  8.8 km/h   10.2 km/h  0%  --  16.1km  50%  Partly Cloudy 
 07/03/2021 - 12:00  -9.9°C  -15.3°C  1029.2 hPa  72%  10.6 km/h   12.3 km/h  0%  --  16.1km  57%  Partly Cloudy 
 07/03/2021 - 13:00  -9.4°C  -15.4°C  1028.8 hPa  72%  13.1 km/h   15.2 km/h  0%  --  15.8km  58%  Partly Cloudy 
 07/03/2021 - 14:00  -8.6°C  -14.8°C  1028.2 hPa  72%  14.0 km/h   17.5 km/h  5%  0.01 mm/h  14.7km  74%  Mostly Cloudy 
 07/03/2021 - 15:00  -7.9°C  -14.1°C  1028.2 hPa  72%  14.7 km/h   20.0 km/h  5%  0.01 mm/h  14.1km  84%  Mostly Cloudy 
 07/03/2021 - 16:00  -7.7°C  -13.9°C  1028.4 hPa  72%  15.2 km/h   23.0 km/h  3%  0.01 mm/h  16.0km  81%  Mostly Cloudy 
 07/03/2021 - 17:00  -8.0°C  -14.3°C  1028.9 hPa  72%  14.9 km/h   26.4 km/h  3%  0.01 mm/h  14.4km  76%  Mostly Cloudy 
 07/03/2021 - 18:00  -8.8°C  -15.0°C  1029.9 hPa  74%  14.2 km/h   29.1 km/h  0%  --  16.1km  62%  Mostly Cloudy 
 07/03/2021 - 19:00  -9.6°C  -15.9°C  1030.4 hPa  75%  13.8 km/h   29.6 km/h  0%  --  16.1km  35%  Partly Cloudy 
 07/03/2021 - 20:00  -10.1°C  -16.3°C  1030.6 hPa  76%  13.0 km/h   27.4 km/h  0%  --  16.1km  19%  Clear 
 07/03/2021 - 21:00  -10.5°C  -16.5°C  1030.7 hPa  77%  12.0 km/h   23.1 km/h  0%  --  16.1km  19%  Clear 
 07/03/2021 - 22:00  -11.0°C  -16.8°C  1030.7 hPa  77%  11.0 km/h   19.3 km/h  0%  --  16.1km  20%  Clear 
 07/03/2021 - 23:00  -11.5°C  -17.1°C  1030.8 hPa  78%  10.1 km/h   15.7 km/h  0%  --  16.1km  20%  Clear 
 08/03/2021 - 00:00  -12.1°C  -17.4°C  1031.0 hPa  78%  9.3 km/h   13.4 km/h  0%  --  16.1km  20%  Clear 
 08/03/2021 - 01:00  -13.0°C  -18.1°C  1031.1 hPa  79%  8.2 km/h   11.4 km/h  0%  --  16.1km  14%  Clear 
 08/03/2021 - 02:00  -13.6°C  -18.5°C  1031.1 hPa  79%  7.6 km/h   10.0 km/h  0%  --  16.1km  8%  Clear 
 08/03/2021 - 03:00  -14.1°C  -18.8°C  1031.0 hPa  79%  7.2 km/h   9.9 km/h  0%  --  16.1km  4%  Clear 
 08/03/2021 - 04:00  -14.4°C  -19.1°C  1031.2 hPa  78%  6.9 km/h   8.6 km/h  0%  --  16.1km  1%  Clear 
 08/03/2021 - 05:00  -15.0°C  -19.8°C  1031.6 hPa  79%  6.9 km/h   11.1 km/h  0%  --  16.1km  2%  Clear 
 08/03/2021 - 06:00  -15.7°C  -20.6°C  1032.1 hPa  80%  7.0 km/h   13.2 km/h  0%  --  16.1km  3%  Clear 
 08/03/2021 - 07:00  -15.3°C  -20.4°C  1032.5 hPa  82%  7.3 km/h   15.6 km/h  0%  --  16.1km  4%  Clear 
 08/03/2021 - 08:00  -13.9°C  -19.0°C  1032.7 hPa  84%  8.1 km/h   16.5 km/h  0%  --  16.1km  8%  Clear 
 08/03/2021 - 09:00  -11.8°C  -16.7°C  1032.6 hPa  82%  8.2 km/h   17.2 km/h  0%  --  16.1km  13%  Clear 

 

Past weather and reports

Past weatherFind in this section the past weather conditions, weather archive, graphics, reports and statistics.

Current conditions

Current weather condition for MontrealAll you need to know about the current weather conditions for Montreal. Weather data is updated every 10 minutes.

Weather forecast

Current Montreal weatherSince 2004, celinium.com website has provided accurate weather forecast for Montreal's island.